Time;durP1;ratioP1;P1;durP2;ratioP2;P2;SDS_P1;SDS_P2;PMS_P1;PMS_P2;Temp;Humidity;BMP_temperature;BMP_pressure;BME280_temperature;BME280_humidity;BME280_pressure;Samples;Min_cycle;Max_cycle;Signal;HPM_P1;HPM_P2
2022/01/29 00:01:45;;;;;;;8.15;1.10;;;27.90;96.00;;;;;;5032993;28;20108;-73
2022/01/29 00:04:12;;;;;;;7.25;1.30;;;27.90;95.60;;;;;;5030062;28;20128;-73
2022/01/29 00:06:39;;;;;;;12.00;1.90;;;28.00;95.40;;;;;;5032104;28;20028;-73
2022/01/29 00:09:08;;;;;;;8.43;1.20;;;28.10;95.70;;;;;;5033021;28;20087;-73
2022/01/29 00:11:36;;;;;;;6.93;0.93;;;28.20;95.60;;;;;;5028139;28;20033;-74
2022/01/29 00:14:05;;;;;;;5.97;1.10;;;28.30;95.50;;;;;;5024116;28;20044;-75
2022/01/29 00:16:33;;;;;;;6.40;1.42;;;28.30;94.70;;;;;;5033322;28;20060;-75
2022/01/29 00:19:01;;;;;;;6.50;1.02;;;28.30;94.60;;;;;;5030100;28;20402;-75
2022/01/29 00:21:28;;;;;;;3.30;0.90;;;28.30;94.90;;;;;;5031028;28;20033;-74
2022/01/29 00:23:55;;;;;;;4.25;1.38;;;28.40;94.80;;;;;;5031889;28;20374;-73
2022/01/29 00:26:25;;;;;;;8.02;1.60;;;28.40;94.10;;;;;;5031962;28;20047;-74
2022/01/29 00:28:52;;;;;;;5.50;1.38;;;28.50;94.10;;;;;;5031637;28;20482;-73
2022/01/29 00:31:20;;;;;;;10.25;1.55;;;28.50;94.00;;;;;;5031059;28;20033;-73
2022/01/29 00:33:47;;;;;;;8.13;1.25;;;28.60;93.70;;;;;;5029842;28;20079;-74
2022/01/29 00:36:14;;;;;;;7.20;1.17;;;28.60;93.40;;;;;;5029723;28;20112;-73
2022/01/29 00:38:42;;;;;;;8.93;1.20;;;28.70;93.10;;;;;;5030171;28;20075;-73
2022/01/29 00:41:09;;;;;;;6.28;1.45;;;28.80;93.40;;;;;;5031423;28;20691;-70
2022/01/29 00:43:36;;;;;;;6.50;1.50;;;28.80;93.20;;;;;;5028503;28;20041;-72
2022/01/29 00:46:04;;;;;;;5.18;1.25;;;28.90;93.20;;;;;;5031955;28;20052;-72
2022/01/29 00:48:31;;;;;;;8.40;1.27;;;29.00;93.10;;;;;;5030617;28;20029;-72
2022/01/29 00:51:00;;;;;;;6.65;1.30;;;29.20;93.30;;;;;;5031259;28;20013;-73
2022/01/29 00:53:27;;;;;;;5.78;1.05;;;29.30;92.60;;;;;;5030937;28;20040;-72
2022/01/29 00:55:55;;;;;;;4.63;1.10;;;29.30;91.80;;;;;;5031261;28;20097;-73
2022/01/29 00:58:22;;;;;;;7.65;1.30;;;29.20;92.00;;;;;;5031338;28;20045;-70
2022/01/29 01:00:49;;;;;;;8.73;1.33;;;29.10;91.80;;;;;;5030389;28;20022;-73
2022/01/29 01:03:17;;;;;;;4.53;1.13;;;29.10;92.30;;;;;;5030060;28;20029;-73
2022/01/29 01:05:44;;;;;;;5.50;1.00;;;29.30;92.30;;;;;;5032276;28;20075;-73
2022/01/29 01:08:11;;;;;;;4.93;0.82;;;29.40;92.30;;;;;;5031505;28;20066;-72
2022/01/29 01:10:39;;;;;;;5.53;1.10;;;29.50;92.20;;;;;;5029302;28;20508;-71
2022/01/29 01:13:06;;;;;;;5.97;1.27;;;29.50;92.10;;;;;;5030550;28;20022;-73
2022/01/29 01:15:34;;;;;;;7.45;1.40;;;29.50;92.00;;;;;;5028047;28;20024;-75
2022/01/29 01:18:01;;;;;;;6.05;0.90;;;29.50;91.90;;;;;;5029126;28;20014;-73
2022/01/29 01:20:29;;;;;;;7.20;1.23;;;29.50;91.80;;;;;;5030364;28;20033;-74
2022/01/29 01:22:56;;;;;;;3.90;0.80;;;29.60;91.40;;;;;;5023726;28;20033;-75
2022/01/29 01:25:23;;;;;;;5.65;0.85;;;29.60;91.50;;;;;;5028198;28;20757;-75
2022/01/29 01:27:52;;;;;;;4.85;0.90;;;29.60;91.70;;;;;;5030136;28;20029;-73
2022/01/29 01:30:19;;;;;;;5.20;1.00;;;29.50;91.30;;;;;;5030199;28;20107;-73
2022/01/29 01:32:47;;;;;;;9.52;1.48;;;29.40;91.50;;;;;;5027796;28;20190;-74
2022/01/29 01:35:28;;;;;;;7.60;1.27;;;29.40;91.50;;;;;;5030271;28;20056;-73
2022/01/29 01:38:04;;;;;;;5.25;1.10;;;29.40;91.40;;;;;;5029120;28;20144;-74
2022/01/29 01:40:31;;;;;;;5.35;1.60;;;29.40;91.60;;;;;;5028283;28;20482;-74
2022/01/29 01:43:00;;;;;;;6.70;1.27;;;29.60;91.80;;;;;;5029188;28;20017;-73
2022/01/29 01:45:29;;;;;;;6.85;1.00;;;29.80;91.40;;;;;;5025550;28;20033;-74
2022/01/29 01:47:58;;;;;;;5.88;0.82;;;30.00;91.00;;;;;;5028532;28;20033;-74
2022/01/29 01:50:25;;;;;;;3.15;1.00;;;30.10;91.40;;;;;;5027732;28;20564;-73
2022/01/29 01:52:53;;;;;;;7.40;1.40;;;30.10;91.10;;;;;;5028969;28;20022;-75
2022/01/29 01:55:22;;;;;;;7.97;0.98;;;30.30;91.20;;;;;;5025837;28;20033;-73
2022/01/29 01:57:50;;;;;;;5.38;1.17;;;30.40;90.90;;;;;;5027788;28;20012;-77
2022/01/29 02:00:17;;;;;;;8.48;1.75;;;30.50;91.20;;;;;;5027471;28;20033;-74
2022/01/29 02:02:45;;;;;;;5.32;1.48;;;30.50;90.80;;;;;;5028825;28;20147;-71
2022/01/29 02:05:12;;;;;;;8.20;1.58;;;30.50;90.90;;;;;;5028930;28;20017;-74
2022/01/29 02:07:40;;;;;;;7.05;1.48;;;30.40;90.80;;;;;;5028524;28;20033;-73
2022/01/29 02:10:09;;;;;;;6.43;1.10;;;30.20;91.00;;;;;;5026866;28;20825;-76
2022/01/29 02:12:46;;;;;;;5.60;1.08;;;30.20;91.00;;;;;;5028278;28;20036;-74
2022/01/29 02:15:15;;;;;;;6.75;1.73;;;29.90;91.40;;;;;;5026674;28;20098;-74
2022/01/29 02:17:42;;;;;;;6.70;1.40;;;30.00;91.10;;;;;;5027321;28;20021;-74
2022/01/29 02:20:10;;;;;;;5.88;0.98;;;30.00;90.90;;;;;;5027664;28;20032;-74
2022/01/29 02:22:40;;;;;;;3.58;1.45;;;30.10;90.80;;;;;;5027995;28;20014;-74
2022/01/29 02:25:27;;;;;;;4.57;1.30;;;30.20;91.10;;;;;;5026835;28;20022;-74
2022/01/29 02:27:56;;;;;;;7.80;1.60;;;30.40;91.10;;;;;;5027097;28;20438;-73
2022/01/29 02:30:24;;;;;;;4.45;1.15;;;30.40;91.10;;;;;;5025441;28;20029;-74
2022/01/29 02:32:51;;;;;;;8.85;1.65;;;30.50;90.90;;;;;;5029462;28;20029;-72
2022/01/29 02:35:19;;;;;;;5.93;1.52;;;30.60;91.00;;;;;;5027625;28;20478;-74
2022/01/29 02:37:50;;;;;;;4.25;1.20;;;30.70;91.00;;;;;;5029425;28;20104;-73
2022/01/29 02:40:18;;;;;;;;;;;30.90;90.40;;;;;;5030094;28;20013;-74
2022/01/29 02:42:46;;;;;;;4.55;0.80;;;30.90;90.20;;;;;;5025820;28;19913;-73
2022/01/29 02:45:13;;;;;;;7.43;1.25;;;30.80;90.00;;;;;;5024587;28;20120;-73
2022/01/29 02:47:40;;;;;;;5.63;1.50;;;31.00;90.60;;;;;;5027583;28;20067;-72
2022/01/29 02:50:08;;;;;;;6.72;1.70;;;31.20;89.80;;;;;;5027574;28;20478;-73
2022/01/29 02:52:36;;;;;;;7.35;1.58;;;31.30;89.80;;;;;;5027148;28;20025;-71
2022/01/29 02:55:05;;;;;;;8.05;1.60;;;31.40;89.90;;;;;;5023960;28;20039;-72
2022/01/29 02:57:33;;;;;;;10.32;1.55;;;31.40;89.70;;;;;;5026075;28;20079;-74
2022/01/29 03:00:00;;;;;;;10.38;1.55;;;31.60;89.60;;;;;;5027697;28;20091;-72
2022/01/29 03:02:28;;;;;;;5.88;1.48;;;31.50;89.40;;;;;;5026602;28;20025;-72
2022/01/29 03:04:57;;;;;;;6.55;1.08;;;31.40;89.40;;;;;;5025425;28;20028;-75
2022/01/29 03:07:25;;;;;;;8.00;1.60;;;31.60;89.70;;;;;;5025403;28;20068;-74
2022/01/29 03:09:52;;;;;;;7.32;1.55;;;31.70;89.10;;;;;;5025263;28;20045;-72
2022/01/29 03:12:19;;;;;;;7.05;1.40;;;32.10;88.40;;;;;;5028849;28;20022;-75
2022/01/29 03:14:47;;;;;;;7.88;2.03;;;32.20;87.00;;;;;;5026442;28;20065;-73
2022/01/29 03:17:14;;;;;;;7.15;1.25;;;32.30;87.40;;;;;;5030227;28;20018;-73
2022/01/29 03:19:41;;;;;;;4.57;1.40;;;32.60;86.60;;;;;;5029555;28;20486;-72
2022/01/29 03:22:09;;;;;;;6.43;1.50;;;33.20;85.30;;;;;;5031431;28;20040;-72
2022/01/29 03:24:36;;;;;;;3.53;0.90;;;33.40;84.10;;;;;;5028649;28;20031;-74
2022/01/29 03:27:03;;;;;;;11.60;1.77;;;33.70;83.80;;;;;;5031807;28;20528;-72
2022/01/29 03:29:31;;;;;;;7.50;1.23;;;33.80;82.00;;;;;;5029652;28;20036;-73
2022/01/29 03:31:58;;;;;;;7.97;1.52;;;33.60;82.80;;;;;;5031167;28;20092;-73
2022/01/29 03:34:25;;;;;;;5.85;1.13;;;33.50;82.50;;;;;;5028698;28;20389;-75
2022/01/29 03:36:55;;;;;;;7.90;0.93;;;33.20;82.10;;;;;;5028573;28;20026;-72
2022/01/29 03:39:24;;;;;;;7.13;1.30;;;32.90;83.00;;;;;;5030034;28;20033;-71
2022/01/29 03:41:52;;;;;;;7.13;1.42;;;32.70;83.10;;;;;;5029904;28;20049;-73
2022/01/29 03:44:20;;;;;;;4.13;1.00;;;32.50;83.30;;;;;;5026652;28;20057;-73
2022/01/29 03:46:48;;;;;;;6.82;1.02;;;32.50;84.20;;;;;;5027704;28;21034;-74
2022/01/29 03:49:15;;;;;;;10.43;1.75;;;32.60;84.40;;;;;;5029673;28;20061;-74
2022/01/29 03:51:43;;;;;;;6.63;1.15;;;32.50;84.40;;;;;;5030734;28;20017;-71
2022/01/29 03:54:10;;;;;;;6.30;1.02;;;32.40;84.80;;;;;;5028663;28;20036;-73
2022/01/29 03:56:37;;;;;;;6.18;1.30;;;32.30;85.40;;;;;;5028347;28;20029;-73
2022/01/29 03:59:05;;;;;;;5.65;1.40;;;32.20;86.00;;;;;;5030963;28;20025;-73
2022/01/29 04:01:32;;;;;;;5.05;1.35;;;32.20;85.70;;;;;;5028354;28;20792;-71
2022/01/29 04:03:59;;;;;;;5.93;1.58;;;32.00;87.30;;;;;;5028818;28;20026;-73
2022/01/29 04:06:27;;;;;;;8.50;1.60;;;32.30;86.60;;;;;;5024868;28;20366;-74
2022/01/29 04:08:54;;;;;;;5.22;1.52;;;32.60;85.70;;;;;;5028883;28;20029;-73
2022/01/29 04:11:22;;;;;;;10.90;1.45;;;32.80;85.60;;;;;;5028661;28;20060;-74
2022/01/29 04:13:50;;;;;;;7.80;1.85;;;33.10;85.70;;;;;;5029951;28;20466;-73
2022/01/29 04:16:18;;;;;;;6.85;1.17;;;33.70;84.50;;;;;;5022105;28;20116;-73
2022/01/29 04:18:45;;;;;;;8.88;2.25;;;33.80;83.30;;;;;;5030013;28;20021;-74
2022/01/29 04:21:13;;;;;;;9.80;1.90;;;34.20;83.70;;;;;;5030238;28;20418;-74
2022/01/29 04:23:40;;;;;;;6.85;1.58;;;34.40;82.30;;;;;;5027931;28;20056;-73
2022/01/29 04:26:07;;;;;;;7.40;1.27;;;34.10;82.50;;;;;;5026530;28;20030;-74
2022/01/29 04:28:41;;;;;;;8.63;1.63;;;34.50;80.60;;;;;;5030283;28;20078;-73
2022/01/29 04:31:15;;;;;;;8.90;1.85;;;34.30;81.60;;;;;;5029091;28;20022;-73
2022/01/29 04:33:42;;;;;;;9.32;1.95;;;33.60;83.20;;;;;;5028052;28;20041;-73
2022/01/29 04:36:10;;;;;;;10.93;2.28;;;32.90;84.80;;;;;;5026511;28;20021;-74
2022/01/29 04:38:37;;;;;;;7.43;1.15;;;32.90;86.20;;;;;;5025048;28;20032;-75
2022/01/29 04:41:05;;;;;;;9.65;1.73;;;33.10;85.70;;;;;;5030156;28;20381;-74
2022/01/29 04:43:35;;;;;;;12.20;2.05;;;33.00;85.00;;;;;;5028450;28;20044;-72
2022/01/29 04:46:03;;;;;;;9.73;1.83;;;32.90;85.20;;;;;;5025241;28;20056;-73
2022/01/29 04:48:30;;;;;;;7.60;1.50;;;32.80;85.70;;;;;;5027724;28;20565;-75
2022/01/29 04:50:58;;;;;;;11.20;3.15;;;33.00;85.80;;;;;;5028612;28;20389;-73
2022/01/29 04:53:25;;;;;;;8.85;2.00;;;32.60;86.80;;;;;;5029969;28;20512;-73
2022/01/29 04:55:52;;;;;;;9.02;1.45;;;32.50;86.80;;;;;;5026918;28;20020;-73
2022/01/29 04:58:20;;;;;;;10.45;2.28;;;32.30;87.90;;;;;;5027136;28;20039;-73
2022/01/29 05:00:47;;;;;;;10.23;2.20;;;32.40;87.60;;;;;;5029539;28;20128;-74
2022/01/29 05:03:16;;;;;;;9.13;2.03;;;32.50;87.10;;;;;;5029455;28;20109;-73
2022/01/29 05:05:43;;;;;;;11.50;1.83;;;32.30;88.00;;;;;;5026939;28;20014;-71
2022/01/29 05:08:14;;;;;;;10.00;2.00;;;32.10;88.70;;;;;;5026629;28;20033;-71
2022/01/29 05:10:41;;;;;;;9.63;2.90;;;32.00;88.40;;;;;;5028950;28;20090;-73
2022/01/29 05:13:12;;;;;;;10.10;1.63;;;32.20;89.50;;;;;;5028909;28;20068;-72
2022/01/29 05:17:06;;;;;;;10.90;1.93;;;32.90;87.50;;;;;;5027871;28;20029;-73
2022/01/29 05:29:21;;;;;;;7.95;1.90;;;32.50;88.30;;;;;;5027538;28;20052;-73
2022/01/29 05:31:51;;;;;;;12.85;2.30;;;33.20;86.00;;;;;;5027549;28;20023;-73
2022/01/29 05:34:20;;;;;;;17.05;3.55;;;33.00;86.90;;;;;;5026474;28;20033;-71
2022/01/29 05:36:47;;;;;;;12.30;2.47;;;33.40;85.70;;;;;;5023155;28;20594;-74
2022/01/29 05:39:16;;;;;;;16.67;3.72;;;33.40;84.90;;;;;;5029219;28;20043;-73
2022/01/29 05:41:43;;;;;;;14.68;2.90;;;33.30;85.50;;;;;;5030314;28;20057;-74
2022/01/29 05:44:10;;;;;;;9.13;2.83;;;33.20;85.10;;;;;;5029478;28;20147;-74
2022/01/29 05:46:41;;;;;;;12.63;3.30;;;33.10;86.10;;;;;;5029145;28;20045;-72
2022/01/29 05:49:08;;;;;;;11.98;2.65;;;33.20;85.00;;;;;;5029924;28;20130;-73
2022/01/29 05:51:35;;;;;;;11.75;3.53;;;32.60;86.60;;;;;;5029944;28;20099;-73
2022/01/29 05:54:03;;;;;;;10.43;2.63;;;32.10;88.90;;;;;;5011559;28;20100;-73
2022/01/29 05:56:31;;;;;;;16.77;3.92;;;31.70;89.40;;;;;;5023167;28;20477;-73
2022/01/29 05:58:58;;;;;;;10.85;2.53;;;31.30;90.00;;;;;;5027944;28;20052;-73
2022/01/29 06:01:26;;;;;;;17.27;2.40;;;30.70;90.80;;;;;;5028209;28;20048;-74
2022/01/29 06:03:53;;;;;;;17.67;3.30;;;30.40;91.20;;;;;;5028405;28;20010;-72
2022/01/29 06:06:20;;;;;;;14.32;2.63;;;30.10;91.50;;;;;;5023927;28;20109;-72
2022/01/29 06:08:48;;;;;;;16.90;2.63;;;29.80;91.70;;;;;;5027640;28;20024;-73
2022/01/29 06:11:16;;;;;;;12.35;2.35;;;29.50;92.30;;;;;;5028000;28;20051;-75
2022/01/29 06:13:48;;;;;;;15.25;2.45;;;29.30;92.70;;;;;;5028202;28;20037;-75
2022/01/29 06:16:15;;;;;;;13.38;2.92;;;29.20;92.80;;;;;;5023617;28;20075;-74
2022/01/29 06:18:43;;;;;;;14.20;2.67;;;29.00;93.20;;;;;;5025047;28;20044;-73
2022/01/29 06:21:13;;;;;;;17.33;2.85;;;29.00;93.50;;;;;;5022942;28;20024;-75
2022/01/29 06:23:40;;;;;;;14.63;2.83;;;28.90;93.70;;;;;;5020371;28;20427;-74
2022/01/29 06:26:11;;;;;;;13.98;2.97;;;28.70;94.20;;;;;;5029951;28;20126;-72
2022/01/29 06:28:39;;;;;;;16.47;3.60;;;28.50;94.40;;;;;;5028020;28;20493;-74
2022/01/29 06:31:09;;;;;;;13.35;2.47;;;28.40;94.60;;;;;;5027021;28;20017;-73
2022/01/29 06:33:37;;;;;;;13.15;2.70;;;28.10;94.90;;;;;;5027588;28;20025;-72
2022/01/29 06:36:05;;;;;;;16.25;2.95;;;28.10;95.30;;;;;;5024192;28;20462;-74
2022/01/29 06:38:32;;;;;;;14.30;2.80;;;28.00;95.30;;;;;;5027075;28;20475;-76
2022/01/29 06:41:00;;;;;;;15.55;2.92;;;28.00;95.30;;;;;;5027176;28;20053;-73
2022/01/29 06:43:28;;;;;;;17.55;2.65;;;27.90;95.50;;;;;;5027824;28;20390;-73
2022/01/29 06:45:56;;;;;;;17.27;3.00;;;27.90;95.70;;;;;;5023731;28;20025;-73
2022/01/29 06:48:23;;;;;;;19.63;3.85;;;27.90;96.00;;;;;;5026771;28;20405;-73
2022/01/29 06:50:51;;;;;;;15.65;3.50;;;27.80;95.80;;;;;;5025905;28;20152;-73
2022/01/29 06:53:18;;;;;;;22.05;3.97;;;27.90;95.80;;;;;;5026705;28;20026;-74
2022/01/29 06:55:45;;;;;;;13.50;2.80;;;27.90;95.90;;;;;;5024470;28;20784;-75
2022/01/29 06:58:13;;;;;;;21.08;4.00;;;27.90;96.00;;;;;;5027413;28;20033;-75
2022/01/29 07:00:40;;;;;;;17.88;3.78;;;27.90;96.10;;;;;;5026584;28;20018;-73
2022/01/29 07:03:07;;;;;;;18.35;3.65;;;27.70;96.40;;;;;;5024483;28;20072;-73
2022/01/29 07:05:35;;;;;;;17.40;3.50;;;27.70;96.40;;;;;;5025617;28;20033;-74
2022/01/29 07:08:04;;;;;;;20.83;3.80;;;27.60;96.80;;;;;;5027321;28;20010;-73
2022/01/29 07:10:31;;;;;;;17.92;3.63;;;27.40;96.90;;;;;;5025155;28;20050;-72
2022/01/29 07:12:58;;;;;;;15.25;3.55;;;27.40;96.80;;;;;;5028389;28;20025;-72
2022/01/29 07:15:26;;;;;;;20.08;3.55;;;27.40;96.90;;;;;;5027303;28;20060;-72
2022/01/29 07:17:53;;;;;;;17.88;3.90;;;27.30;97.00;;;;;;5024133;28;20505;-75
2022/01/29 07:20:20;;;;;;;21.98;5.07;;;27.20;97.30;;;;;;5026071;28;20083;-73
2022/01/29 07:22:48;;;;;;;16.08;3.60;;;27.20;97.20;;;;;;5029929;28;20497;-73
2022/01/29 07:25:15;;;;;;;16.35;2.63;;;27.20;97.60;;;;;;5029685;28;20025;-73
2022/01/29 07:27:42;;;;;;;19.42;3.35;;;27.10;97.70;;;;;;5028165;28;20021;-74
2022/01/29 07:30:10;;;;;;;18.08;3.72;;;27.00;97.90;;;;;;5027340;28;20028;-73
2022/01/29 07:32:46;;;;;;;15.55;3.35;;;27.00;98.30;;;;;;5028118;28;20045;-73
2022/01/29 07:35:14;;;;;;;20.75;3.33;;;26.90;98.30;;;;;;5025768;28;20120;-73
2022/01/29 07:37:41;;;;;;;25.35;4.38;;;26.80;98.60;;;;;;5029513;28;20082;-72
2022/01/29 07:40:09;;;;;;;19.48;3.47;;;26.80;98.60;;;;;;5026812;28;20493;-72
2022/01/29 07:42:38;;;;;;;20.10;4.50;;;26.80;98.70;;;;;;5029883;28;20108;-73
2022/01/29 07:45:05;;;;;;;23.00;5.55;;;26.70;99.00;;;;;;5028967;28;20025;-73
2022/01/29 07:47:33;;;;;;;20.73;3.10;;;26.70;98.90;;;;;;5029266;28;20409;-72
2022/01/29 07:50:00;;;;;;;17.77;3.85;;;26.60;99.00;;;;;;5029130;28;20155;-73
2022/01/29 07:52:28;;;;;;;20.95;4.35;;;26.60;99.20;;;;;;5029506;28;20014;-71
2022/01/29 07:54:55;;;;;;;17.00;3.95;;;26.60;99.50;;;;;;5029471;28;20052;-71
2022/01/29 07:57:23;;;;;;;22.02;4.30;;;26.50;99.60;;;;;;5029620;28;20018;-71
2022/01/29 07:59:50;;;;;;;22.05;5.90;;;26.50;99.90;;;;;;5030339;28;20021;-71
2022/01/29 08:02:17;;;;;;;23.50;4.25;;;26.50;99.90;;;;;;5032738;28;20490;-71
2022/01/29 08:04:45;;;;;;;21.85;4.03;;;26.50;99.90;;;;;;5032916;28;20041;-73
2022/01/29 08:07:12;;;;;;;23.35;4.53;;;26.50;99.90;;;;;;5031331;28;20025;-71
2022/01/29 08:09:39;;;;;;;20.38;4.03;;;26.50;99.90;;;;;;5032782;28;20041;-72
2022/01/29 08:12:07;;;;;;;27.45;5.15;;;26.50;99.90;;;;;;5031699;28;20496;-73
2022/01/29 08:14:34;;;;;;;22.63;3.78;;;26.50;99.90;;;;;;5032026;28;20045;-75
2022/01/29 08:17:02;;;;;;;20.88;3.88;;;26.40;99.90;;;;;;5030108;28;20014;-73
2022/01/29 08:19:29;;;;;;;18.63;4.22;;;26.40;99.90;;;;;;5028713;28;20032;-76
2022/01/29 08:21:56;;;;;;;26.55;4.90;;;26.40;99.90;;;;;;5032632;28;20018;-74
2022/01/29 08:24:24;;;;;;;20.45;4.13;;;26.40;99.90;;;;;;5032768;28;20108;-74
2022/01/29 08:26:51;;;;;;;22.70;4.55;;;26.30;99.90;;;;;;5031549;28;20466;-74
2022/01/29 08:29:18;;;;;;;27.77;5.47;;;26.30;99.90;;;;;;5032082;28;20029;-73
2022/01/29 08:31:45;;;;;;;18.67;4.38;;;26.30;99.90;;;;;;5033137;28;20072;-73
2022/01/29 08:34:13;;;;;;;22.13;5.38;;;26.30;99.90;;;;;;5032526;28;20033;-73
2022/01/29 08:36:40;;;;;;;24.90;4.97;;;26.20;99.90;;;;;;5032551;28;20029;-74
2022/01/29 08:39:08;;;;;;;20.25;4.60;;;26.30;99.90;;;;;;5030573;28;20521;-72
2022/01/29 08:41:35;;;;;;;27.02;4.68;;;26.20;99.90;;;;;;5032278;28;20363;-74
2022/01/29 08:44:03;;;;;;;26.13;4.53;;;26.30;99.90;;;;;;5032861;28;20017;-74
2022/01/29 08:46:30;;;;;;;26.15;5.10;;;26.20;99.90;;;;;;5029721;28;20759;-75
2022/01/29 08:48:58;;;;;;;16.15;4.05;;;26.20;99.90;;;;;;5032412;28;20474;-74
2022/01/29 08:51:26;;;;;;;29.25;5.22;;;26.10;99.90;;;;;;5030484;28;20137;-73
2022/01/29 08:53:53;;;;;;;22.80;4.15;;;26.00;99.90;;;;;;5031381;28;20393;-73
2022/01/29 08:56:20;;;;;;;26.88;4.85;;;26.10;99.90;;;;;;5028581;28;20032;-71
2022/01/29 08:58:48;;;;;;;28.17;5.43;;;26.10;99.90;;;;;;5030193;28;20091;-73
2022/01/29 09:01:15;;;;;;;25.38;4.75;;;26.00;99.90;;;;;;5029797;28;20030;-72
2022/01/29 09:03:42;;;;;;;27.88;5.63;;;25.90;99.90;;;;;;5030017;28;20013;-72
2022/01/29 09:06:10;;;;;;;23.25;4.72;;;25.90;99.90;;;;;;5028093;28;20029;-74
2022/01/29 09:08:39;;;;;;;31.98;6.47;;;25.90;99.90;;;;;;5031005;28;20040;-74
2022/01/29 09:11:07;;;;;;;28.83;4.80;;;25.80;99.90;;;;;;5031019;28;20057;-73
2022/01/29 09:13:34;;;;;;;23.98;4.55;;;25.80;99.90;;;;;;5031489;28;20025;-73
2022/01/29 09:16:02;;;;;;;22.55;4.28;;;25.80;99.90;;;;;;5031571;28;20466;-73
2022/01/29 09:18:29;;;;;;;25.98;4.88;;;25.80;99.90;;;;;;5031367;28;20112;-73
2022/01/29 09:20:56;;;;;;;23.83;4.40;;;25.80;99.90;;;;;;5029376;28;20537;-73
2022/01/29 09:23:24;;;;;;;23.48;4.50;;;25.80;99.90;;;;;;5031069;28;20103;-74
2022/01/29 09:25:51;;;;;;;28.63;4.80;;;25.80;99.90;;;;;;5027267;28;20021;-75
2022/01/29 09:28:18;;;;;;;24.27;5.07;;;25.90;99.90;;;;;;5029600;28;20033;-75
2022/01/29 09:30:48;;;;;;;21.83;3.78;;;25.90;99.90;;;;;;5031154;28;20096;-75
2022/01/29 09:33:17;;;;;;;23.30;4.50;;;25.80;99.90;;;;;;5030950;28;20071;-75
2022/01/29 09:35:44;;;;;;;30.83;4.80;;;25.80;99.90;;;;;;5030975;28;20060;-76
2022/01/29 09:38:13;;;;;;;26.50;4.53;;;25.80;99.90;;;;;;5028583;28;20071;-72
2022/01/29 09:40:43;;;;;;;32.38;6.43;;;25.80;99.90;;;;;;5029458;28;20017;-73
2022/01/29 09:43:12;;;;;;;26.25;5.50;;;25.90;99.90;;;;;;5024126;28;20025;-72
2022/01/29 09:45:40;;;;;;;21.02;3.50;;;25.80;99.90;;;;;;5031013;28;20139;-71
2022/01/29 09:48:07;;;;;;;24.65;5.00;;;25.70;99.90;;;;;;5030627;28;20029;-74
2022/01/29 09:50:37;;;;;;;28.08;4.63;;;25.70;99.90;;;;;;5029279;28;20525;-75
2022/01/29 09:53:06;;;;;;;26.25;5.47;;;25.70;99.90;;;;;;5026638;28;20022;-73
2022/01/29 09:55:34;;;;;;;27.23;4.72;;;25.70;99.90;;;;;;5024128;28;20032;-70
2022/01/29 09:58:01;;;;;;;25.05;3.60;;;25.70;99.90;;;;;;5030672;28;20138;-70
2022/01/29 10:00:29;;;;;;;22.10;4.63;;;25.60;99.90;;;;;;5029671;28;20021;-72
2022/01/29 10:03:11;;;;;;;31.95;5.85;;;25.60;99.90;;;;;;5030146;28;20018;-73
2022/01/29 10:05:42;;;;;;;;;;;25.70;99.90;;;;;;5028722;28;20053;-71
2022/01/29 10:08:10;;;;;;;26.75;4.85;;;25.60;99.90;;;;;;5030297;28;19909;-71
2022/01/29 10:10:49;;;;;;;17.45;4.13;;;25.60;99.90;;;;;;5029995;28;20030;-72
2022/01/29 10:13:36;;;;;;;23.48;5.80;;;25.60;99.90;;;;;;5028376;28;20584;-75
2022/01/29 10:16:25;;;;;;;18.60;5.10;;;25.60;99.90;;;;;;5029574;28;20032;-75
2022/01/29 10:19:05;;;;;;;26.02;5.85;;;25.70;99.90;;;;;;5027896;28;20543;-74
2022/01/29 10:21:38;;;;;;;30.08;9.10;;;25.70;99.90;;;;;;5026447;28;20040;-75
2022/01/29 10:24:08;;;;;;;25.65;9.00;;;25.60;99.90;;;;;;5029748;28;20501;-72
2022/01/29 10:26:44;;;;;;;35.00;11.60;;;25.60;99.90;;;;;;5030158;28;20025;-74
2022/01/29 10:29:18;;;;;;;35.22;10.75;;;25.60;99.90;;;;;;5027675;28;20017;-73
2022/01/29 10:31:48;;;;;;;27.02;8.75;;;25.60;99.90;;;;;;5029745;28;20025;-71
2022/01/29 10:34:27;;;;;;;24.63;5.25;;;25.60;99.90;;;;;;5029881;28;20029;-72
2022/01/29 10:37:23;;;;;;;23.15;4.97;;;25.70;99.90;;;;;;5028229;28;20018;-70
2022/01/29 10:39:56;;;;;;;21.77;4.75;;;25.70;99.90;;;;;;5027433;28;20540;-70
2022/01/29 10:42:32;;;;;;;19.83;5.30;;;25.70;99.90;;;;;;5028911;28;20029;-72
2022/01/29 10:45:06;;;;;;;24.45;4.55;;;25.70;99.90;;;;;;5027721;28;20025;-73
2022/01/29 10:47:57;;;;;;;27.63;5.80;;;25.70;99.90;;;;;;5027728;28;20108;-73
2022/01/29 10:50:25;;;;;;;28.33;5.07;;;25.70;99.90;;;;;;5026326;28;20028;-75
2022/01/29 10:52:52;;;;;;;23.27;4.32;;;25.70;99.90;;;;;;5025836;28;20056;-74
2022/01/29 10:55:19;;;;;;;25.42;4.53;;;25.60;99.90;;;;;;5027578;28;20037;-72
2022/01/29 10:57:49;;;;;;;24.08;3.63;;;25.60;99.90;;;;;;5028369;28;20064;-73
2022/01/29 11:00:26;;;;;;;30.63;5.57;;;25.70;99.90;;;;;;5029108;28;20022;-73
2022/01/29 11:02:57;;;;;;;26.40;5.57;;;25.60;99.90;;;;;;5027646;28;20025;-72
2022/01/29 11:05:33;;;;;;;28.45;4.50;;;25.60;99.90;;;;;;5028244;28;20029;-72
2022/01/29 11:08:03;;;;;;;22.02;3.67;;;25.50;99.90;;;;;;5027985;28;20148;-69
2022/01/29 11:10:30;;;;;;;25.60;4.63;;;25.50;99.90;;;;;;5029421;28;20037;-72
2022/01/29 11:13:00;;;;;;;32.95;4.45;;;25.40;99.90;;;;;;5029389;28;20028;-71
2022/01/29 11:15:28;;;;;;;22.98;4.30;;;25.40;99.90;;;;;;5029441;28;20128;-72
2022/01/29 11:17:57;;;;;;;23.73;5.15;;;25.40;99.90;;;;;;5027848;28;20071;-71
2022/01/29 11:20:24;;;;;;;27.52;4.90;;;25.40;99.90;;;;;;5029681;28;20026;-72
2022/01/29 11:22:52;;;;;;;26.00;4.95;;;25.40;99.90;;;;;;5026063;28;20058;-70
2022/01/29 11:25:31;;;;;;;29.23;5.30;;;25.40;99.90;;;;;;5030541;28;20018;-71
2022/01/29 11:28:18;;;;;;;27.70;6.47;;;25.40;99.90;;;;;;5028872;28;20041;-73
2022/01/29 11:31:15;;;;;;;31.80;4.55;;;25.40;99.90;;;;;;5026899;28;20486;-72
2022/01/29 11:34:02;;;;;;;22.75;4.88;;;25.30;99.90;;;;;;5021406;28;20112;-73
2022/01/29 11:36:47;;;;;;;23.45;3.90;;;25.40;99.90;;;;;;5034735;28;20175;-73
2022/01/29 11:39:22;;;;;;;28.10;5.50;;;25.30;99.90;;;;;;5032167;28;20049;-73
2022/01/29 11:42:15;;;;;;;29.75;5.13;;;25.30;99.90;;;;;;5032061;28;20017;-73
2022/01/29 11:44:45;;;;;;;28.67;3.83;;;25.30;99.90;;;;;;5027903;28;20076;-73
2022/01/29 11:47:27;;;;;;;22.73;4.28;;;25.20;99.90;;;;;;5032223;28;20049;-73
2022/01/29 11:50:20;;;;;;;25.33;3.78;;;25.10;99.90;;;;;;5032487;28;20561;-74
2022/01/29 11:52:57;;;;;;;23.98;5.07;;;25.10;99.90;;;;;;5030920;28;20029;-73
2022/01/29 11:55:41;;;;;;;28.77;5.68;;;25.10;99.90;;;;;;5031185;28;20117;-74
2022/01/29 11:58:17;;;;;;;21.85;4.60;;;25.10;99.90;;;;;;5031756;28;20014;-73
2022/01/29 12:00:46;;;;;;;23.08;3.80;;;25.10;99.90;;;;;;5030828;28;20021;-73
2022/01/29 12:03:35;;;;;;;20.02;3.90;;;25.10;99.90;;;;;;5032587;28;20024;-73
2022/01/29 12:09:01;;;;;;;26.67;4.53;;;25.10;99.90;;;;;;5032700;28;20079;-74
2022/01/29 12:11:28;;;;;;;21.48;4.38;;;25.10;99.90;;;;;;5031635;28;20045;-74
2022/01/29 12:14:14;;;;;;;19.67;4.10;;;25.10;99.90;;;;;;5031731;28;20044;-74
2022/01/29 12:16:59;;;;;;;24.08;4.90;;;25.10;99.90;;;;;;5032220;28;20137;-73
2022/01/29 12:19:45;;;;;;;17.17;3.30;;;25.10;99.90;;;;;;5027161;28;20112;-74
2022/01/29 12:22:15;;;;;;;23.33;3.92;;;25.10;99.90;;;;;;5031017;28;20018;-74
2022/01/29 12:24:50;;;;;;;21.63;4.82;;;25.20;99.90;;;;;;5030553;28;20017;-73
2022/01/29 12:27:19;;;;;;;20.23;4.05;;;25.20;99.90;;;;;;5032809;28;20057;-74
2022/01/29 12:29:47;;;;;;;27.08;5.30;;;25.10;99.90;;;;;;5031524;28;20018;-72
2022/01/29 12:32:14;;;;;;;20.67;4.50;;;25.10;99.90;;;;;;5032526;28;20033;-72
2022/01/29 12:34:42;;;;;;;24.95;4.57;;;25.10;99.90;;;;;;5032441;28;20389;-72
2022/01/29 12:37:13;;;;;;;19.45;4.18;;;25.10;99.90;;;;;;5032628;28;20025;-72
2022/01/29 12:39:45;;;;;;;30.63;4.15;;;25.10;99.90;;;;;;5030355;28;20041;-72
2022/01/29 12:42:26;;;;;;;;;;;25.00;99.90;;;;;;5033056;28;20018;-73
2022/01/29 12:45:01;;;;;;;20.50;3.42;;;25.10;99.90;;;;;;5031065;28;19936;-72
2022/01/29 12:47:32;;;;;;;19.23;3.78;;;25.10;99.90;;;;;;5030977;28;20029;-73
2022/01/29 12:50:00;;;;;;;20.58;3.78;;;25.10;99.90;;;;;;5028712;28;20445;-72
2022/01/29 12:52:28;;;;;;;19.85;3.35;;;25.10;99.90;;;;;;5032405;28;20076;-73
2022/01/29 12:55:01;;;;;;;21.02;3.60;;;24.90;99.90;;;;;;5032338;28;20351;-72
2022/01/29 12:57:45;;;;;;;17.27;3.53;;;24.90;99.90;;;;;;5031040;28;20017;-73
2022/01/29 13:00:16;;;;;;;22.75;3.53;;;24.90;99.90;;;;;;5031146;28;20021;-74
2022/01/29 13:02:43;;;;;;;29.95;4.63;;;24.90;99.90;;;;;;5030928;28;20024;-73
2022/01/29 13:05:12;;;;;;;22.63;4.10;;;24.90;99.90;;;;;;5032248;28;20020;-73
2022/01/29 13:07:40;;;;;;;28.23;4.22;;;24.90;99.90;;;;;;5028086;28;20520;-73